createdAt,value
2018-01-02T00:02:01.824Z,75.70
2018-01-02T00:04:28.352Z,75.90
2018-01-02T00:06:55.400Z,76.20
2018-01-02T00:09:22.064Z,76.00
2018-01-02T00:11:49.064Z,75.30
2018-01-02T00:14:15.749Z,75.90
2018-01-02T00:16:42.449Z,76.00
2018-01-02T00:19:09.066Z,76.10
2018-01-02T00:21:35.649Z,76.50
2018-01-02T00:24:02.217Z,76.50
2018-01-02T00:26:28.781Z,76.40
2018-01-02T00:28:55.765Z,76.40
2018-01-02T00:31:22.966Z,76.40
2018-01-02T00:33:50.312Z,75.90
2018-01-02T00:36:18.919Z,75.90
2018-01-02T00:38:46.398Z,76.00
2018-01-02T00:41:13.440Z,76.20
2018-01-02T00:43:40.833Z,76.20
2018-01-02T00:46:07.666Z,76.40
2018-01-02T00:48:34.730Z,77.00
2018-01-02T00:51:01.378Z,77.00
2018-01-02T00:53:27.932Z,78.00
2018-01-02T00:55:54.641Z,78.30
2018-01-02T00:58:22.152Z,79.00
2018-01-02T01:00:49.830Z,79.10
2018-01-02T01:03:17.410Z,79.70
2018-01-02T01:05:44.180Z,79.40
2018-01-02T01:08:11.098Z,79.80
2018-01-02T01:10:38.133Z,79.80
2018-01-02T01:13:04.721Z,79.50
2018-01-02T01:15:31.276Z,79.50
2018-01-02T01:17:57.902Z,79.50
2018-01-02T01:20:24.721Z,78.90
2018-01-02T01:22:51.721Z,78.70
2018-01-02T01:25:19.640Z,78.80
2018-01-02T01:27:47.964Z,78.90
2018-01-02T01:30:15.014Z,78.90
2018-01-02T01:32:41.688Z,78.80
2018-01-02T01:35:09.062Z,79.00
2018-01-02T01:37:35.685Z,78.90
2018-01-02T01:40:02.221Z,79.10
2018-01-02T01:42:28.781Z,79.10
2018-01-02T01:44:55.551Z,79.30
2018-01-02T01:47:23.322Z,79.50
2018-01-02T01:49:50.432Z,79.20
2018-01-02T01:52:18.889Z,78.80
2018-01-02T01:54:47.137Z,77.90
2018-01-02T01:57:14.453Z,77.80
2018-01-02T01:59:41.120Z,77.80
2018-01-02T02:02:08.445Z,78.40
2018-01-02T02:04:35.168Z,78.40
2018-01-02T02:07:01.730Z,78.30
2018-01-02T02:09:28.256Z,78.30
2018-01-02T02:11:55.046Z,78.80
2018-01-02T02:14:21.953Z,79.20
2018-01-02T02:16:50.440Z,79.40
2018-01-02T02:19:17.784Z,80.10
2018-01-02T02:21:44.636Z,80.50
2018-01-02T02:24:11.314Z,81.10
2018-01-02T02:26:38.937Z,82.10
2018-01-02T02:29:05.585Z,82.10
2018-01-02T02:31:32.172Z,82.60
2018-01-02T02:33:59.191Z,83.20
2018-01-02T02:36:25.842Z,83.20
2018-01-02T02:38:53.309Z,83.90
2018-01-02T02:41:21.919Z,83.50
2018-01-02T02:43:49.813Z,83.50
2018-01-02T02:46:17.877Z,82.20
2018-01-02T02:48:45.026Z,81.90
2018-01-02T02:51:11.665Z,81.90
2018-01-02T02:53:39.148Z,82.00
2018-01-02T02:56:05.818Z,81.50
2018-01-02T02:58:32.378Z,80.00
2018-01-02T03:00:59.372Z,79.00
2018-01-02T03:03:25.957Z,79.00
2018-01-02T03:05:52.699Z,78.80
2018-01-02T03:08:19.782Z,78.70
2018-01-02T03:10:50.082Z,78.60
2018-01-02T03:13:17.975Z,78.20
2018-01-02T03:15:44.780Z,76.60
2018-01-02T03:18:11.856Z,76.90
2018-01-02T03:20:38.517Z,76.80
2018-01-02T03:23:05.187Z,76.60
2018-01-02T03:25:31.748Z,76.00
2018-01-02T03:27:58.357Z,75.20
2018-01-02T03:30:25.035Z,74.90
2018-01-02T03:32:52.912Z,74.50
2018-01-02T03:35:21.097Z,74.50
2018-01-02T03:37:48.939Z,75.00
2018-01-02T03:40:17.156Z,74.90
2018-01-02T03:42:44.806Z,75.00
2018-01-02T03:45:11.796Z,75.20
2018-01-02T03:47:38.852Z,74.90
2018-01-02T03:50:05.925Z,74.10
2018-01-02T03:52:32.502Z,74.10
2018-01-02T03:54:59.485Z,74.80
2018-01-02T03:57:26.056Z,74.80
2018-01-02T03:59:53.019Z,74.20
2018-01-02T04:02:21.248Z,74.80
2018-01-02T04:04:48.718Z,74.40
2018-01-02T04:07:15.879Z,74.90
2018-01-02T04:09:42.760Z,75.10
2018-01-02T04:12:10.467Z,75.30
2018-01-02T04:14:37.508Z,75.30
2018-01-02T04:17:04.276Z,75.30
2018-01-02T04:19:30.845Z,75.40
2018-01-02T04:21:57.385Z,75.90
2018-01-02T04:24:24.735Z,76.40
2018-01-02T04:26:52.010Z,76.40
2018-01-02T04:29:21.519Z,76.10
2018-01-02T04:31:49.750Z,76.40
2018-01-02T04:34:18.328Z,76.40
2018-01-02T04:36:45.209Z,76.60
2018-01-02T04:39:11.872Z,76.80
2018-01-02T04:41:39.049Z,76.40
2018-01-02T04:44:05.713Z,76.80
2018-01-02T04:46:32.273Z,75.90
2018-01-02T04:48:58.837Z,76.10
2018-01-02T04:51:25.867Z,76.30
2018-01-02T04:53:52.620Z,76.20
2018-01-02T04:56:21.215Z,76.30
2018-01-02T04:58:51.352Z,76.20
2018-01-02T05:01:19.113Z,76.20
2018-01-02T05:03:48.587Z,76.70
2018-01-02T05:06:17.048Z,77.00
2018-01-02T05:08:44.164Z,77.40
2018-01-02T05:11:11.248Z,77.40
2018-01-02T05:13:38.098Z,78.00
2018-01-02T05:16:04.698Z,78.50
2018-01-02T05:18:31.709Z,78.70
2018-01-02T05:20:58.328Z,78.70
2018-01-02T05:23:25.100Z,79.20
2018-01-02T05:25:52.478Z,79.90
2018-01-02T05:28:21.788Z,80.60
2018-01-02T05:30:49.904Z,80.60
2018-01-02T05:33:18.573Z,80.90
2018-01-02T05:35:46.245Z,81.50
2018-01-02T05:38:13.116Z,81.30
2018-01-02T05:40:40.375Z,82.10
2018-01-02T05:43:08.037Z,82.10
2018-01-02T05:45:34.790Z,82.10
2018-01-02T05:48:01.325Z,82.20
2018-01-02T05:50:27.880Z,82.60
2018-01-02T05:52:55.641Z,82.90
2018-01-02T05:55:22.921Z,82.60
2018-01-02T05:57:51.588Z,82.30
2018-01-02T06:00:19.395Z,82.30
2018-01-02T06:02:50.423Z,81.70
2018-01-02T06:05:20.935Z,81.70
2018-01-02T06:07:50.973Z,81.80
2018-01-02T06:10:18.693Z,81.80
2018-01-02T06:12:45.772Z,82.00
2018-01-02T06:15:12.602Z,81.90
2018-01-02T06:17:40.080Z,81.70
2018-01-02T06:20:06.823Z,81.40
2018-01-02T06:22:33.356Z,81.50
2018-01-02T06:24:59.993Z,81.00
2018-01-02T06:27:26.562Z,80.70
2018-01-02T06:30:00.252Z,80.50
2018-01-02T06:32:26.901Z,80.00
2018-01-02T06:34:53.525Z,80.20
2018-01-02T06:37:20.646Z,79.90
2018-01-02T06:39:48.044Z,79.90
2018-01-02T06:42:15.445Z,79.90
2018-01-02T06:44:42.201Z,79.90
2018-01-02T06:47:09.079Z,79.50
2018-01-02T06:49:35.732Z,79.60
2018-01-02T06:52:02.321Z,79.70
2018-01-02T06:54:29.249Z,79.80
2018-01-02T06:56:55.779Z,79.80
2018-01-02T06:59:22.421Z,80.20
2018-01-02T07:01:49.145Z,80.80
2018-01-02T07:04:16.751Z,80.80
2018-01-02T07:06:43.913Z,82.20
2018-01-02T07:09:10.889Z,83.50
2018-01-02T07:11:37.527Z,83.50
2018-01-02T07:14:04.116Z,83.30
2018-01-02T07:16:30.737Z,83.60
2018-01-02T07:18:57.365Z,83.80
2018-01-02T07:21:23.937Z,83.30
2018-01-02T07:23:50.562Z,83.50
2018-01-02T07:26:17.848Z,83.10
2018-01-02T07:28:44.642Z,83.10
2018-01-02T07:31:11.352Z,83.30
2018-01-02T07:33:37.979Z,82.40
2018-01-02T07:36:04.933Z,82.60
2018-01-02T07:38:31.517Z,82.10
2018-01-02T07:40:58.421Z,82.30
2018-01-02T07:43:25.017Z,82.30
2018-01-02T07:45:52.011Z,82.80
2018-01-02T07:48:19.109Z,82.90
2018-01-02T07:50:47.599Z,82.80
2018-01-02T07:53:14.278Z,82.80
2018-01-02T07:55:40.857Z,83.20
2018-01-02T07:58:07.449Z,82.90
2018-01-02T08:00:34.069Z,82.80
2018-01-02T08:03:00.585Z,83.90
2018-01-02T08:05:27.521Z,86.90
2018-01-02T08:08:00.937Z,86.90
2018-01-02T08:10:27.878Z,90.00
2018-01-02T08:12:54.453Z,90.00
2018-01-02T08:15:21.563Z,91.10
2018-01-02T08:17:48.518Z,91.10
2018-01-02T08:20:15.195Z,91.40
2018-01-02T08:22:41.966Z,91.90
2018-01-02T08:25:09.036Z,93.00
2018-01-02T08:27:36.128Z,93.20
2018-01-02T08:30:02.728Z,93.30
2018-01-02T08:32:29.661Z,93.30
2018-01-02T08:34:56.293Z,93.30
2018-01-02T08:37:22.886Z,93.20
2018-01-02T08:39:49.843Z,93.10
2018-01-02T08:42:17.053Z,93.10
2018-01-02T08:44:44.022Z,92.60
2018-01-02T08:47:10.984Z,92.00
2018-01-02T08:49:37.609Z,92.00
2018-01-02T08:52:04.141Z,92.20
2018-01-02T08:54:30.704Z,92.10
2018-01-02T08:56:57.294Z,91.70
2018-01-02T08:59:23.915Z,91.10
2018-01-02T09:01:50.876Z,90.30
2018-01-02T09:04:17.830Z,90.00
2018-01-02T09:06:44.896Z,89.50
2018-01-02T09:09:11.609Z,89.00
2018-01-02T09:11:38.201Z,88.70
2018-01-02T09:14:11.183Z,87.50
2018-01-02T09:16:37.881Z,87.50
2018-01-02T09:19:04.976Z,85.30
2018-01-02T09:21:31.588Z,85.30
2018-01-02T09:23:58.568Z,84.60
2018-01-02T09:26:25.104Z,84.60
2018-01-02T09:28:51.669Z,84.60
2018-01-02T09:31:18.549Z,85.10
2018-01-02T09:33:45.402Z,84.00
2018-01-02T09:36:11.994Z,83.30
2018-01-02T09:38:39.112Z,83.10
2018-01-02T09:41:05.685Z,83.10
2018-01-02T09:43:32.307Z,82.90
2018-01-02T09:45:58.866Z,83.00
2018-01-02T09:48:25.745Z,83.30
2018-01-02T09:50:52.737Z,83.20
2018-01-02T09:53:19.524Z,83.20
2018-01-02T09:55:46.082Z,83.10
2018-01-02T09:58:13.045Z,82.00
2018-01-02T10:00:39.657Z,82.00
2018-01-02T10:03:06.319Z,81.90
2018-01-02T10:05:32.892Z,82.40
2018-01-02T10:07:59.518Z,82.70
2018-01-02T10:10:26.057Z,82.90
2018-01-02T10:12:52.668Z,82.80
2018-01-02T10:15:19.258Z,82.80
2018-01-02T10:17:45.835Z,83.90
2018-01-02T10:20:12.454Z,83.10
2018-01-02T10:22:39.106Z,82.90
2018-01-02T10:25:05.653Z,82.10
2018-01-02T10:27:32.273Z,81.50
2018-01-02T10:29:58.925Z,82.70
2018-01-02T10:32:25.604Z,82.50
2018-01-02T10:34:52.251Z,83.10
2018-01-02T10:37:18.845Z,84.30
2018-01-02T10:39:45.845Z,85.90
2018-01-02T10:42:12.428Z,85.90
2018-01-02T10:44:39.156Z,86.70
2018-01-02T10:47:05.810Z,87.00
2018-01-02T10:49:32.369Z,86.80
2018-01-02T10:51:59.002Z,87.30
2018-01-02T10:54:25.590Z,86.60
2018-01-02T10:56:52.554Z,87.40
2018-01-02T10:59:19.567Z,87.20
2018-01-02T11:01:46.328Z,87.20
2018-01-02T11:04:13.297Z,87.20
2018-01-02T11:06:40.005Z,87.20
2018-01-02T11:09:06.644Z,87.10
2018-01-02T11:11:33.313Z,86.80
2018-01-02T11:13:59.945Z,86.50
2018-01-02T11:16:26.725Z,87.30
2018-01-02T11:18:53.309Z,87.20
2018-01-02T11:21:20.245Z,88.10
2018-01-02T11:23:46.954Z,88.10
2018-01-02T11:26:13.628Z,88.30
2018-01-02T11:28:40.221Z,88.30
2018-01-02T11:31:07.205Z,87.60
2018-01-02T11:33:33.788Z,87.60
2018-01-02T11:36:00.373Z,87.00
2018-01-02T11:38:27.272Z,85.70
2018-01-02T11:40:53.936Z,85.70
2018-01-02T11:43:20.533Z,85.30
2018-01-02T11:45:47.825Z,83.40
2018-01-02T11:48:14.810Z,83.40
2018-01-02T11:50:41.453Z,82.70
2018-01-02T11:53:07.980Z,82.10
2018-01-02T11:55:34.568Z,81.90
2018-01-02T11:58:01.137Z,82.30
2018-01-02T12:00:28.124Z,82.00
2018-01-02T12:02:54.811Z,82.00
2018-01-02T12:05:21.426Z,82.10
2018-01-02T12:07:47.980Z,82.40
2018-01-02T12:10:14.567Z,82.20
2018-01-02T12:12:41.526Z,82.20
2018-01-02T12:15:08.061Z,82.20
2018-01-02T12:17:34.801Z,82.10
2018-01-02T12:20:01.451Z,82.30
2018-01-02T12:22:28.077Z,82.00
2018-01-02T12:24:54.750Z,82.00
2018-01-02T12:27:21.351Z,81.00
2018-01-02T12:29:47.954Z,81.90
2018-01-02T12:32:14.666Z,81.30
2018-01-02T12:34:41.447Z,81.40
2018-01-02T12:37:07.990Z,81.20
2018-01-02T12:39:34.640Z,81.10
2018-01-02T12:42:01.295Z,80.50
2018-01-02T12:44:27.869Z,80.70
2018-01-02T12:46:54.462Z,80.00
2018-01-02T12:49:21.112Z,79.70
2018-01-02T12:51:47.892Z,80.10
2018-01-02T12:54:14.517Z,79.80
2018-01-02T12:56:41.196Z,79.10
2018-01-02T12:59:07.729Z,79.10
2018-01-02T13:01:34.387Z,79.60
2018-01-02T13:04:00.972Z,79.20
2018-01-02T13:06:27.584Z,78.20
2018-01-02T13:08:54.285Z,78.50
2018-01-02T13:11:21.293Z,77.80
2018-01-02T13:13:47.850Z,77.80
2018-01-02T13:16:14.486Z,77.90
2018-01-02T13:18:41.137Z,79.00
2018-01-02T13:21:07.788Z,78.10
2018-01-02T13:23:35.056Z,77.30
2018-01-02T13:26:02.212Z,76.10
2018-01-02T13:28:29.019Z,76.10
2018-01-02T13:30:55.716Z,77.00
2018-01-02T13:33:22.543Z,77.60
2018-01-02T13:35:49.223Z,77.20
2018-01-02T13:38:15.950Z,77.40
2018-01-02T13:40:42.552Z,77.40
2018-01-02T13:43:09.453Z,77.40
2018-01-02T13:45:36.224Z,77.40
2018-01-02T13:48:02.833Z,77.60
2018-01-02T13:50:29.422Z,77.50
2018-01-02T13:52:55.989Z,77.90
2018-01-02T13:55:22.546Z,78.00
2018-01-02T13:57:49.471Z,77.50
2018-01-02T14:00:16.335Z,78.10
2018-01-02T14:02:42.975Z,78.20
2018-01-02T14:05:09.599Z,78.50
2018-01-02T14:07:36.254Z,78.50
2018-01-02T14:10:03.129Z,78.90
2018-01-02T14:12:29.748Z,79.00
2018-01-02T14:14:57.052Z,79.20
2018-01-02T14:17:24.822Z,80.10
2018-01-02T14:19:51.469Z,80.00
2018-01-02T14:22:18.041Z,80.10
2018-01-02T14:24:44.971Z,80.40
2018-01-02T14:27:11.529Z,81.30
2018-01-02T14:29:38.105Z,81.60
2018-01-02T14:32:05.953Z,82.30
2018-01-02T14:34:32.931Z,82.30
2018-01-02T14:36:59.979Z,82.20
2018-01-02T14:39:26.935Z,82.60
2018-01-02T14:41:53.885Z,82.40
2018-01-02T14:44:20.848Z,81.90
2018-01-02T14:46:48.111Z,81.40
2018-01-02T14:49:15.129Z,82.00
2018-01-02T14:51:41.799Z,82.00
2018-01-02T14:54:08.365Z,82.20
2018-01-02T14:56:35.000Z,82.60
2018-01-02T14:59:01.646Z,82.90
2018-01-02T15:01:28.217Z,83.70
2018-01-02T15:03:54.843Z,83.70
2018-01-02T15:06:21.444Z,83.90
2018-01-02T15:08:48.498Z,84.70
2018-01-02T15:11:15.590Z,84.70
2018-01-02T15:13:42.259Z,85.00
2018-01-02T15:16:09.010Z,85.10
2018-01-02T15:18:35.965Z,85.40
2018-01-02T15:21:02.541Z,85.80
2018-01-02T15:23:29.164Z,85.80
2018-01-02T15:25:55.697Z,85.90
2018-01-02T15:28:22.361Z,86.10
2018-01-02T15:30:48.980Z,86.20
2018-01-02T15:33:15.979Z,86.10
2018-01-02T15:35:42.693Z,86.10
2018-01-02T15:38:09.445Z,86.30
2018-01-02T15:40:36.194Z,86.00
2018-01-02T15:43:02.872Z,86.30
2018-01-02T15:45:29.520Z,86.00
2018-01-02T15:47:56.272Z,85.60
2018-01-02T15:50:22.868Z,85.80
2018-01-02T15:52:49.881Z,85.50
2018-01-02T15:55:16.672Z,85.50
2018-01-02T15:57:43.278Z,85.60
2018-01-02T16:00:09.840Z,85.80
2018-01-02T16:02:37.073Z,85.80
2018-01-02T16:05:03.806Z,85.30
2018-01-02T16:07:30.465Z,85.60
2018-01-02T16:09:57.009Z,85.50
2018-01-02T16:12:23.696Z,85.50
2018-01-02T16:14:50.452Z,85.60
2018-01-02T16:17:17.916Z,85.20
2018-01-02T16:19:44.867Z,85.20
2018-01-02T16:22:11.927Z,85.10
2018-01-02T16:24:38.545Z,85.10
2018-01-02T16:27:05.225Z,85.00
2018-01-02T16:29:31.858Z,84.90
2018-01-02T16:31:59.417Z,85.10
2018-01-02T16:34:26.065Z,85.10
2018-01-02T16:36:52.641Z,85.00
2018-01-02T16:39:19.472Z,85.10
2018-01-02T16:41:46.305Z,85.00
2018-01-02T16:44:13.321Z,85.00
2018-01-02T16:46:39.938Z,85.00
2018-01-02T16:49:06.529Z,85.00
2018-01-02T16:51:33.109Z,85.10
2018-01-02T16:53:59.642Z,85.30
2018-01-02T16:56:26.585Z,85.30
2018-01-02T16:58:53.173Z,85.30
2018-01-02T17:01:19.856Z,85.50
2018-01-02T17:03:46.584Z,85.50
2018-01-02T17:06:13.252Z,85.60
2018-01-02T17:08:39.902Z,85.30
2018-01-02T17:11:06.551Z,85.70
2018-01-02T17:13:33.113Z,85.60
2018-01-02T17:15:59.650Z,85.60
2018-01-02T17:18:26.212Z,85.90
2018-01-02T17:20:52.820Z,85.80
2018-01-02T17:23:19.709Z,85.90
2018-01-02T17:25:46.778Z,86.20
2018-01-02T17:28:14.432Z,85.60
2018-01-02T17:30:41.465Z,85.60
2018-01-02T17:33:08.137Z,85.60
2018-01-02T17:35:34.722Z,85.60
2018-01-02T17:38:01.953Z,85.10
2018-01-02T17:40:32.219Z,85.10
2018-01-02T17:42:59.137Z,84.70
2018-01-02T17:45:25.697Z,84.10
2018-01-02T17:47:52.341Z,83.80
2018-01-02T17:50:19.087Z,83.40
2018-01-02T17:52:46.145Z,82.90
2018-01-02T17:55:12.720Z,82.90
2018-01-02T17:57:39.443Z,82.70
2018-01-02T18:00:05.997Z,82.60
2018-01-02T18:02:32.622Z,82.60
2018-01-02T18:04:59.494Z,82.60
2018-01-02T18:07:26.143Z,82.60
2018-01-02T18:09:52.717Z,82.50
2018-01-02T18:12:19.546Z,82.40
2018-01-02T18:14:46.165Z,82.30
2018-01-02T18:17:12.732Z,82.30
2018-01-02T18:19:39.305Z,82.10
2018-01-02T18:22:05.830Z,82.00
2018-01-02T18:24:32.429Z,81.80
2018-01-02T18:26:59.337Z,81.70
2018-01-02T18:29:25.986Z,81.80
2018-01-02T18:31:52.647Z,81.70
2018-01-02T18:34:19.287Z,81.80
2018-01-02T18:36:45.832Z,81.90
2018-01-02T18:39:12.405Z,81.90
2018-01-02T18:41:39.030Z,81.60
2018-01-02T18:44:05.564Z,81.40
2018-01-02T18:46:32.205Z,81.50
2018-01-02T18:48:58.853Z,81.60
2018-01-02T18:51:25.413Z,81.80
2018-01-02T18:53:52.178Z,81.70
2018-01-02T18:56:19.408Z,81.80
2018-01-02T18:58:45.970Z,81.90
2018-01-02T19:01:12.549Z,81.80
2018-01-02T19:03:39.205Z,81.90
2018-01-02T19:06:05.744Z,82.00
2018-01-02T19:08:32.561Z,81.90
2018-01-02T19:10:59.639Z,82.00
2018-01-02T19:13:26.217Z,82.10
2018-01-02T19:15:53.421Z,82.60
2018-01-02T19:18:20.563Z,82.60
2018-01-02T19:20:47.849Z,82.80
2018-01-02T19:23:15.759Z,83.00
2018-01-02T19:25:42.404Z,83.00
2018-01-02T19:28:10.309Z,83.30
2018-01-02T19:30:37.239Z,83.50
2018-01-02T19:33:04.066Z,83.70
2018-01-02T19:35:31.259Z,83.80
2018-01-02T19:37:59.097Z,83.90
2018-01-02T19:40:25.956Z,83.80
2018-01-02T19:42:54.181Z,83.80
2018-01-02T19:45:20.793Z,83.80
2018-01-02T19:47:47.651Z,83.70
2018-01-02T19:50:15.176Z,83.60
2018-01-02T19:52:41.765Z,83.40
2018-01-02T19:55:08.417Z,83.30
2018-01-02T19:57:35.094Z,83.30
2018-01-02T20:00:01.717Z,83.00
2018-01-02T20:02:28.331Z,83.30
2018-01-02T20:04:54.938Z,82.80
2018-01-02T20:07:21.588Z,82.80
2018-01-02T20:09:48.443Z,82.90
2018-01-02T20:12:17.986Z,82.90
2018-01-02T20:14:44.566Z,82.90
2018-01-02T20:17:11.244Z,82.50
2018-01-02T20:19:41.752Z,82.60
2018-01-02T20:22:08.550Z,82.50
2018-01-02T20:24:38.172Z,82.40
2018-01-02T20:27:04.705Z,82.50
2018-01-02T20:29:31.988Z,82.40
2018-01-02T20:31:59.965Z,82.40
2018-01-02T20:34:27.840Z,82.20
2018-01-02T20:36:54.590Z,81.60
2018-01-02T20:39:21.209Z,81.00
2018-01-02T20:41:47.865Z,81.00
2018-01-02T20:44:14.438Z,80.90
2018-01-02T20:46:41.010Z,81.00
2018-01-02T20:49:08.252Z,80.90
2018-01-02T20:51:35.700Z,81.00
2018-01-02T20:54:03.659Z,80.70
2018-01-02T20:56:30.421Z,80.50
2018-01-02T20:58:57.023Z,80.90
2018-01-02T21:01:26.033Z,81.10
2018-01-02T21:03:53.965Z,81.10
2018-01-02T21:06:22.308Z,80.40
2018-01-02T21:08:49.198Z,79.60
2018-01-02T21:11:16.877Z,79.70
2018-01-02T21:13:44.388Z,79.50
2018-01-02T21:16:14.123Z,79.40
2018-01-02T21:18:40.753Z,79.00
2018-01-02T21:21:07.288Z,78.70
2018-01-02T21:23:33.865Z,79.00
2018-01-02T21:26:00.419Z,78.60
2018-01-02T21:28:27.554Z,78.60
2018-01-02T21:30:54.662Z,78.60
2018-01-02T21:33:21.281Z,79.40
2018-01-02T21:35:47.897Z,79.90
2018-01-02T21:38:14.425Z,80.20
2018-01-02T21:40:40.993Z,80.70
2018-01-02T21:43:08.548Z,81.30
2018-01-02T21:45:35.738Z,81.30
2018-01-02T21:48:02.405Z,80.70
2018-01-02T21:50:29.432Z,80.30
2018-01-02T21:52:57.404Z,80.50
2018-01-02T21:55:24.001Z,80.50
2018-01-02T21:57:51.040Z,80.00
2018-01-02T22:00:18.045Z,79.70
2018-01-02T22:02:44.621Z,79.70
2018-01-02T22:05:12.110Z,79.80
2018-01-02T22:07:38.687Z,79.90
2018-01-02T22:10:05.674Z,80.80
2018-01-02T22:12:32.377Z,80.80
2018-01-02T22:14:59.109Z,81.10
2018-01-02T22:17:25.745Z,81.20
2018-01-02T22:19:52.329Z,80.60
2018-01-02T22:22:19.009Z,80.80
2018-01-02T22:24:45.578Z,80.70
2018-01-02T22:27:12.116Z,80.40
2018-01-02T22:29:38.689Z,80.30
2018-01-02T22:32:05.321Z,80.30
2018-01-02T22:34:32.101Z,79.80
2018-01-02T22:36:59.030Z,79.60
2018-01-02T22:39:26.041Z,79.60
2018-01-02T22:41:52.993Z,79.10
2018-01-02T22:44:19.621Z,79.10
2018-01-02T22:46:46.213Z,78.10
2018-01-02T22:49:12.790Z,77.80
2018-01-02T22:51:39.345Z,77.30
2018-01-02T22:54:05.998Z,77.60
2018-01-02T22:56:32.693Z,78.20
2018-01-02T22:58:59.363Z,77.60
2018-01-02T23:01:25.949Z,77.60
2018-01-02T23:03:52.585Z,77.90
2018-01-02T23:06:19.188Z,78.30
2018-01-02T23:08:45.775Z,78.90
2018-01-02T23:11:12.301Z,78.90
2018-01-02T23:13:38.864Z,78.70
2018-01-02T23:16:05.544Z,78.50
2018-01-02T23:18:33.627Z,78.50
2018-01-02T23:21:00.930Z,79.70
2018-01-02T23:23:29.497Z,79.20
2018-01-02T23:25:57.348Z,79.00
2018-01-02T23:28:24.437Z,78.70
2018-01-02T23:30:51.156Z,78.70
2018-01-02T23:33:17.705Z,79.10
2018-01-02T23:35:44.265Z,79.30
2018-01-02T23:38:10.833Z,79.40
2018-01-02T23:40:37.385Z,79.80
2018-01-02T23:43:04.077Z,79.80
2018-01-02T23:45:31.080Z,80.20
2018-01-02T23:47:58.994Z,80.10
2018-01-02T23:50:25.794Z,79.90
2018-01-02T23:52:52.464Z,79.60
2018-01-02T23:55:19.497Z,79.40
2018-01-02T23:57:46.087Z,79.40
